createdAt,value
2023-04-16T00:01:35.872Z,7.77
2023-04-16T00:04:04.677Z,7.07
2023-04-16T00:06:34.760Z,7.07
2023-04-16T00:09:03.412Z,7.50
2023-04-16T00:11:32.783Z,6.32
2023-04-16T00:14:01.811Z,6.85
2023-04-16T00:16:30.559Z,7.43
2023-04-16T00:18:59.266Z,7.00
2023-04-16T00:21:28.136Z,6.97
2023-04-16T00:23:58.138Z,6.53
2023-04-16T00:26:26.775Z,6.93
2023-04-16T00:28:55.422Z,8.43
2023-04-16T00:31:29.081Z,7.93
2023-04-16T00:33:57.968Z,7.07
2023-04-16T00:36:27.125Z,7.40
2023-04-16T00:38:56.324Z,8.20
2023-04-16T00:41:26.288Z,5.18
2023-04-16T00:43:55.034Z,6.95
2023-04-16T00:46:25.067Z,7.22
2023-04-16T00:48:54.928Z,6.57
2023-04-16T00:53:52.191Z,6.40
2023-04-16T00:56:21.159Z,7.30
2023-04-16T00:58:51.151Z,7.20
2023-04-16T01:01:19.845Z,6.97
2023-04-16T01:03:49.201Z,7.18
2023-04-16T01:06:19.437Z,7.03
2023-04-16T01:08:48.360Z,6.55
2023-04-16T01:11:17.651Z,6.70
2023-04-16T01:13:46.264Z,7.28
2023-04-16T01:16:16.272Z,6.57
2023-04-16T01:18:45.092Z,6.07
2023-04-16T01:21:15.071Z,5.40
2023-04-16T01:23:43.982Z,5.60
2023-04-16T01:26:12.636Z,5.93
2023-04-16T01:28:41.250Z,6.45
2023-04-16T01:31:09.916Z,7.13
2023-04-16T01:33:38.573Z,6.72
2023-04-16T01:36:07.452Z,7.85
2023-04-16T01:38:37.402Z,7.83
2023-04-16T01:41:06.038Z,7.88
2023-04-16T01:43:34.629Z,7.95
2023-04-16T01:46:13.055Z,7.13
2023-04-16T01:48:41.806Z,6.82
2023-04-16T01:51:11.093Z,7.07
2023-04-16T01:53:41.175Z,7.32
2023-04-16T01:56:09.820Z,6.43
2023-04-16T01:58:38.511Z,5.80
2023-04-16T02:01:07.541Z,6.22
2023-04-16T02:03:36.533Z,5.97
2023-04-16T02:06:05.425Z,6.72
2023-04-16T02:08:34.062Z,7.50
2023-04-16T02:11:04.027Z,7.25
2023-04-16T02:13:32.632Z,7.05
2023-04-16T02:16:01.454Z,7.50
2023-04-16T02:18:30.491Z,8.93
2023-04-16T02:21:00.828Z,7.25
2023-04-16T02:23:29.800Z,7.82
2023-04-16T02:25:58.661Z,7.75
2023-04-16T02:28:28.666Z,11.10
2023-04-16T02:30:57.344Z,8.80
2023-04-16T02:33:26.703Z,10.55
2023-04-16T02:35:55.477Z,9.80
2023-04-16T02:38:24.195Z,10.52
2023-04-16T02:40:52.818Z,9.55
2023-04-16T02:43:21.421Z,9.95
2023-04-16T02:45:51.479Z,8.50
2023-04-16T02:48:20.177Z,9.43
2023-04-16T02:50:48.857Z,9.63
2023-04-16T02:53:17.505Z,10.05
2023-04-16T02:55:48.961Z,9.07
2023-04-16T02:58:17.565Z,10.82
2023-04-16T03:00:46.245Z,11.20
2023-04-16T03:03:16.251Z,11.02
2023-04-16T03:05:45.551Z,10.40
2023-04-16T03:08:14.180Z,10.98
2023-04-16T03:10:42.912Z,10.57
2023-04-16T03:13:11.685Z,10.18
2023-04-16T03:15:40.296Z,10.43
2023-04-16T03:18:08.985Z,9.90
2023-04-16T03:20:38.994Z,9.15
2023-04-16T03:23:07.573Z,9.15
2023-04-16T03:25:36.588Z,9.40
2023-04-16T03:28:05.447Z,8.90
2023-04-16T03:30:34.097Z,9.80
2023-04-16T03:33:03.053Z,9.43
2023-04-16T03:35:31.849Z,9.75
2023-04-16T03:38:01.946Z,9.55
2023-04-16T03:40:30.872Z,9.05
2023-04-16T03:42:59.547Z,9.77
2023-04-16T03:45:28.181Z,10.40
2023-04-16T03:47:56.919Z,9.30
2023-04-16T03:50:25.780Z,9.85
2023-04-16T03:52:54.407Z,10.53
2023-04-16T03:55:24.495Z,7.55
2023-04-16T03:57:53.176Z,10.98
2023-04-16T04:00:21.781Z,10.50
2023-04-16T04:02:50.580Z,10.05
2023-04-16T04:05:19.295Z,10.75
2023-04-16T04:07:47.925Z,11.77
2023-04-16T04:10:16.744Z,11.00
2023-04-16T04:12:46.740Z,10.97
2023-04-16T04:15:15.536Z,11.98
2023-04-16T04:17:44.219Z,9.80
2023-04-16T04:20:13.605Z,12.00
2023-04-16T04:22:42.230Z,12.55
2023-04-16T04:25:12.070Z,14.70
2023-04-16T04:27:40.780Z,16.40
2023-04-16T04:30:12.029Z,18.05
2023-04-16T04:32:40.655Z,16.70
2023-04-16T04:35:09.654Z,16.48
2023-04-16T04:37:38.262Z,18.25
2023-04-16T04:40:07.463Z,16.90
2023-04-16T04:42:36.073Z,16.42
2023-04-16T04:45:04.700Z,16.50
2023-04-16T04:47:34.722Z,16.33
2023-04-16T04:50:03.444Z,16.27
2023-04-16T04:52:32.081Z,17.35
2023-04-16T04:55:01.289Z,18.10
2023-04-16T04:57:29.930Z,19.15
2023-04-16T04:59:58.624Z,19.35
2023-04-16T05:02:27.428Z,21.40
2023-04-16T05:04:57.591Z,31.80
2023-04-16T05:07:26.221Z,27.77
2023-04-16T05:09:54.957Z,25.45
2023-04-16T05:12:23.614Z,26.15
2023-04-16T05:14:52.562Z,27.13
2023-04-16T05:17:21.226Z,30.95
2023-04-16T05:19:49.851Z,24.42
2023-04-16T05:22:19.869Z,24.50
2023-04-16T05:24:48.522Z,25.27
2023-04-16T05:27:17.309Z,24.60
2023-04-16T05:29:45.878Z,23.63
2023-04-16T05:32:14.593Z,23.35
2023-04-16T05:34:43.536Z,23.08
2023-04-16T05:37:12.512Z,22.90
2023-04-16T05:39:42.544Z,24.13
2023-04-16T05:42:11.185Z,25.40
2023-04-16T05:44:39.868Z,25.88
2023-04-16T05:47:09.747Z,28.98
2023-04-16T05:49:38.387Z,27.15
2023-04-16T05:52:07.397Z,24.77
2023-04-16T05:54:36.160Z,22.27
2023-04-16T05:57:06.634Z,23.30
2023-04-16T05:59:38.179Z,24.83
2023-04-16T06:02:10.732Z,22.55
2023-04-16T06:04:45.264Z,23.05
2023-04-16T06:07:14.307Z,24.67
2023-04-16T06:09:43.228Z,24.53
2023-04-16T06:12:13.332Z,24.63
2023-04-16T06:14:42.000Z,26.40
2023-04-16T06:17:10.616Z,23.42
2023-04-16T06:19:39.263Z,23.67
2023-04-16T06:22:07.927Z,26.27
2023-04-16T06:24:36.858Z,25.13
2023-04-16T06:27:05.578Z,23.20
2023-04-16T06:29:41.058Z,21.13
2023-04-16T06:32:10.598Z,23.58
2023-04-16T06:34:39.418Z,21.88
2023-04-16T06:37:10.525Z,20.08
2023-04-16T06:39:43.493Z,19.30
2023-04-16T06:42:12.279Z,19.52
2023-04-16T06:44:42.286Z,19.30
2023-04-16T06:47:11.011Z,16.90
2023-04-16T06:49:40.301Z,16.08
2023-04-16T06:52:09.347Z,14.80
2023-04-16T06:54:38.032Z,12.50
2023-04-16T06:57:06.774Z,13.93
2023-04-16T06:59:35.357Z,14.68
2023-04-16T07:02:05.495Z,14.20
2023-04-16T07:04:34.162Z,12.93
2023-04-16T07:07:02.883Z,14.05
2023-04-16T07:09:31.556Z,12.13
2023-04-16T07:12:00.184Z,12.40
2023-04-16T07:14:29.491Z,11.15
2023-04-16T07:16:58.372Z,10.77
2023-04-16T07:19:33.393Z,11.75
2023-04-16T07:22:02.154Z,11.00
2023-04-16T07:24:30.816Z,10.63
2023-04-16T07:26:59.521Z,11.77
2023-04-16T07:29:28.567Z,10.80
2023-04-16T07:31:57.163Z,10.50
2023-04-16T07:34:25.822Z,11.40
2023-04-16T07:36:55.849Z,11.48
2023-04-16T07:39:24.459Z,11.07
2023-04-16T07:41:53.098Z,10.23
2023-04-16T07:44:21.692Z,9.70
2023-04-16T07:46:50.567Z,10.63
2023-04-16T07:49:19.287Z,10.00
2023-04-16T07:51:47.931Z,9.98
2023-04-16T07:54:17.904Z,9.93
2023-04-16T07:56:46.569Z,11.15
2023-04-16T07:59:22.909Z,9.25
2023-04-16T08:01:54.507Z,9.85
2023-04-16T08:04:25.730Z,9.25
2023-04-16T08:06:54.950Z,9.02
2023-04-16T08:09:25.691Z,9.00
2023-04-16T08:11:54.334Z,8.65
2023-04-16T08:14:23.220Z,8.38
2023-04-16T08:16:52.156Z,9.07
2023-04-16T08:19:20.782Z,9.30
2023-04-16T08:21:54.050Z,9.02
2023-04-16T08:24:22.749Z,7.95
2023-04-16T08:26:52.724Z,8.23
2023-04-16T08:29:21.866Z,7.97
2023-04-16T08:31:50.538Z,7.65
2023-04-16T08:34:19.206Z,7.25
2023-04-16T08:36:47.850Z,8.00
2023-04-16T08:39:16.478Z,7.15
2023-04-16T08:41:46.169Z,7.63
2023-04-16T08:44:28.982Z,7.10
2023-04-16T08:46:59.054Z,6.72
2023-04-16T08:49:28.385Z,6.13
2023-04-16T08:51:57.686Z,7.30
2023-04-16T08:54:33.278Z,6.50
2023-04-16T08:57:02.238Z,7.53
2023-04-16T08:59:32.507Z,9.35
2023-04-16T09:02:01.206Z,9.02
2023-04-16T09:04:30.838Z,8.48
2023-04-16T09:07:01.378Z,8.75
2023-04-16T09:09:30.051Z,8.45
2023-04-16T09:11:58.708Z,7.65
2023-04-16T09:14:27.349Z,8.05
2023-04-16T09:17:01.097Z,7.45
2023-04-16T09:19:29.801Z,8.10
2023-04-16T09:21:58.794Z,7.88
2023-04-16T09:24:27.848Z,9.13
2023-04-16T09:26:56.560Z,9.10
2023-04-16T09:29:35.408Z,8.50
2023-04-16T09:32:06.132Z,8.52
2023-04-16T09:34:35.017Z,8.93
2023-04-16T09:37:17.192Z,9.95
2023-04-16T09:39:46.335Z,7.68
2023-04-16T09:42:15.890Z,6.72
2023-04-16T09:44:44.565Z,7.35
2023-04-16T09:47:15.372Z,7.15
2023-04-16T09:49:44.382Z,9.73
2023-04-16T09:52:15.392Z,9.70
2023-04-16T09:54:48.094Z,9.52
2023-04-16T09:57:17.055Z,9.05
2023-04-16T09:59:45.821Z,10.52
2023-04-16T10:02:16.605Z,10.50
2023-04-16T10:04:49.383Z,11.10
2023-04-16T10:07:18.495Z,11.07
2023-04-16T10:09:48.521Z,10.63
2023-04-16T10:12:18.014Z,10.68
2023-04-16T10:14:48.371Z,10.57
2023-04-16T10:17:20.234Z,9.82
2023-04-16T10:19:49.581Z,8.55
2023-04-16T10:22:18.293Z,8.13
2023-04-16T10:24:46.954Z,7.63
2023-04-16T10:27:17.139Z,7.50
2023-04-16T10:29:46.506Z,7.18
2023-04-16T10:32:15.798Z,6.88
2023-04-16T10:34:45.844Z,6.88
2023-04-16T10:37:14.456Z,8.35
2023-04-16T10:39:43.074Z,7.22
2023-04-16T10:42:12.237Z,8.02
2023-04-16T10:44:44.375Z,8.40
2023-04-16T10:47:14.150Z,9.80
2023-04-16T10:49:44.527Z,10.07
2023-04-16T10:52:17.498Z,9.15
2023-04-16T10:58:26.643Z,10.02
2023-04-16T11:00:55.586Z,9.05
2023-04-16T11:03:25.001Z,9.07
2023-04-16T11:05:54.609Z,8.95
2023-04-16T11:08:26.388Z,8.27
2023-04-16T11:10:56.174Z,7.72
2023-04-16T11:13:25.766Z,8.77
2023-04-16T11:15:58.480Z,7.40
2023-04-16T11:18:28.245Z,7.47
2023-04-16T11:20:57.447Z,9.05
2023-04-16T11:23:28.235Z,7.75
2023-04-16T11:25:58.642Z,7.78
2023-04-16T11:28:37.274Z,8.10
2023-04-16T11:31:13.359Z,7.57
2023-04-16T11:33:42.476Z,8.23
2023-04-16T11:36:11.433Z,9.13
2023-04-16T11:41:36.400Z,7.32
2023-04-16T11:44:18.841Z,7.73
2023-04-16T11:46:47.958Z,7.85
2023-04-16T11:49:17.585Z,7.22
2023-04-16T11:51:47.424Z,8.18
2023-04-16T11:56:48.457Z,6.72
2023-04-16T11:59:18.725Z,6.50
2023-04-16T12:01:49.429Z,5.90
2023-04-16T12:04:19.364Z,5.72
2023-04-16T12:07:07.099Z,5.72
2023-04-16T12:09:39.994Z,4.95
2023-04-16T12:12:27.780Z,4.97
2023-04-16T12:14:57.495Z,5.38
2023-04-16T12:17:26.810Z,5.45
2023-04-16T12:19:58.014Z,4.72
2023-04-16T12:28:44.728Z,3.88
2023-04-16T12:31:15.979Z,4.20
2023-04-16T12:33:45.033Z,4.63
2023-04-16T12:36:21.130Z,4.33
2023-04-16T12:38:50.195Z,4.60
2023-04-16T12:41:18.809Z,4.88
2023-04-16T12:43:47.472Z,4.20
2023-04-16T12:46:17.600Z,4.25
2023-04-16T12:48:46.291Z,3.95
2023-04-16T12:51:14.938Z,3.47
2023-04-16T12:53:44.380Z,3.47
2023-04-16T12:56:13.685Z,3.65
2023-04-16T12:58:42.679Z,4.55
2023-04-16T13:01:12.090Z,3.80
2023-04-16T13:03:42.845Z,3.38
2023-04-16T13:06:12.138Z,3.08
2023-04-16T13:08:41.382Z,3.00
2023-04-16T13:11:10.780Z,2.80
2023-04-16T13:13:39.886Z,2.30
2023-04-16T13:16:08.934Z,2.47
2023-04-16T13:18:39.456Z,2.63
2023-04-16T13:21:10.192Z,2.53
2023-04-16T13:23:39.147Z,3.78
2023-04-16T13:26:08.184Z,3.60
2023-04-16T13:28:37.561Z,3.17
2023-04-16T13:31:06.585Z,2.75
2023-04-16T13:33:36.044Z,3.65
2023-04-16T13:36:05.037Z,3.38
2023-04-16T13:41:57.996Z,3.42
2023-04-16T13:44:26.766Z,3.22
2023-04-16T13:46:56.172Z,3.40
2023-04-16T13:49:24.897Z,3.30
2023-04-16T13:51:53.526Z,3.17
2023-04-16T13:54:22.644Z,3.00
2023-04-16T13:56:51.856Z,3.55
2023-04-16T13:59:21.810Z,3.58
2023-04-16T14:01:50.665Z,4.55
2023-04-16T14:04:19.480Z,9.30
2023-04-16T14:06:48.205Z,6.30
2023-04-16T14:09:17.183Z,4.53
2023-04-16T14:11:45.898Z,4.23
2023-04-16T14:14:14.607Z,4.20
2023-04-16T14:16:44.660Z,4.13
2023-04-16T14:19:13.437Z,4.55
2023-04-16T14:21:42.237Z,6.07
2023-04-16T14:24:11.114Z,4.95
2023-04-16T14:26:39.759Z,5.20
2023-04-16T14:29:08.646Z,5.32
2023-04-16T14:31:37.694Z,4.47
2023-04-16T14:34:07.853Z,5.03
2023-04-16T14:36:36.992Z,5.22
2023-04-16T14:39:05.726Z,4.78
2023-04-16T14:41:34.647Z,4.90
2023-04-16T14:44:04.210Z,4.68
2023-04-16T14:46:33.636Z,4.35
2023-04-16T14:49:02.288Z,5.00
2023-04-16T14:51:32.650Z,5.00
2023-04-16T14:54:01.339Z,5.28
2023-04-16T14:56:30.173Z,5.40
2023-04-16T14:58:58.815Z,5.07
2023-04-16T15:01:27.486Z,4.88
2023-04-16T15:03:57.435Z,4.60
2023-04-16T15:06:26.824Z,4.70
2023-04-16T15:08:56.783Z,4.40
2023-04-16T15:13:54.361Z,5.13
2023-04-16T15:16:23.101Z,4.47
2023-04-16T15:18:51.892Z,5.10
2023-04-16T15:21:20.646Z,4.63
2023-04-16T15:23:49.274Z,4.65
2023-04-16T15:26:19.310Z,4.60
2023-04-16T15:28:48.007Z,4.95
2023-04-16T15:31:16.670Z,5.03
2023-04-16T15:33:45.418Z,5.45
2023-04-16T15:36:14.275Z,5.07
2023-04-16T15:38:42.947Z,5.00
2023-04-16T15:41:11.898Z,6.28
2023-04-16T15:43:41.929Z,6.20
2023-04-16T15:46:10.787Z,5.82
2023-04-16T15:48:39.448Z,6.10
2023-04-16T15:51:08.174Z,6.70
2023-04-16T15:53:36.856Z,6.47
2023-04-16T15:56:05.475Z,5.13
2023-04-16T15:58:34.162Z,6.18
2023-04-16T16:01:04.125Z,7.13
2023-04-16T16:03:33.898Z,6.80
2023-04-16T16:11:03.990Z,8.00
2023-04-16T16:13:32.590Z,7.63
2023-04-16T16:16:01.817Z,6.95
2023-04-16T16:18:32.215Z,7.22
2023-04-16T16:21:00.821Z,7.07
2023-04-16T16:23:29.416Z,7.15
2023-04-16T16:25:58.018Z,6.82
2023-04-16T16:28:27.115Z,6.78
2023-04-16T16:30:58.694Z,7.87
2023-04-16T16:33:28.518Z,6.38
2023-04-16T16:38:27.025Z,6.95
2023-04-16T16:40:55.654Z,7.35
2023-04-16T16:43:24.397Z,7.20
2023-04-16T16:45:53.058Z,7.28
2023-04-16T16:48:21.666Z,6.22
2023-04-16T16:50:50.269Z,5.50
2023-04-16T16:53:19.016Z,6.10
2023-04-16T16:55:48.989Z,10.18
2023-04-16T16:58:18.014Z,6.70
2023-04-16T17:00:46.737Z,8.20
2023-04-16T17:03:15.554Z,7.28
2023-04-16T17:05:44.329Z,7.47
2023-04-16T17:08:13.843Z,6.68
2023-04-16T17:10:43.530Z,7.80
2023-04-16T17:13:15.162Z,6.70
2023-04-16T17:15:43.805Z,6.72
2023-04-16T17:18:12.437Z,6.63
2023-04-16T17:20:41.054Z,6.80
2023-04-16T17:23:09.861Z,5.93
2023-04-16T17:25:39.171Z,9.23
2023-04-16T17:28:07.849Z,9.18
2023-04-16T17:30:37.808Z,7.70
2023-04-16T17:33:06.420Z,8.32
2023-04-16T17:35:35.216Z,8.93
2023-04-16T17:38:03.852Z,8.35
2023-04-16T17:40:32.642Z,7.97
2023-04-16T17:43:01.405Z,8.95
2023-04-16T17:45:30.228Z,8.32
2023-04-16T17:48:00.511Z,8.63
2023-04-16T17:50:29.554Z,7.28
2023-04-16T17:53:03.522Z,8.33
2023-04-16T17:55:32.874Z,8.63
2023-04-16T17:58:03.571Z,11.35
2023-04-16T18:00:32.424Z,10.30
2023-04-16T18:03:02.701Z,10.10
2023-04-16T18:05:32.166Z,8.55
2023-04-16T18:08:01.114Z,8.48
2023-04-16T18:10:32.651Z,9.60
2023-04-16T18:13:01.884Z,8.35
2023-04-16T18:15:30.868Z,7.57
2023-04-16T18:17:59.975Z,8.27
2023-04-16T18:20:30.349Z,8.80
2023-04-16T18:22:59.226Z,10.77
2023-04-16T18:25:34.613Z,6.93
2023-04-16T18:28:05.207Z,4.40
2023-04-16T18:30:34.372Z,4.20
2023-04-16T18:35:36.639Z,3.78
2023-04-16T18:38:06.494Z,4.15
2023-04-16T18:43:04.229Z,3.10
2023-04-16T18:45:34.425Z,3.40
2023-04-16T18:48:04.233Z,3.55
2023-04-16T18:50:33.205Z,2.60
2023-04-16T18:53:03.502Z,3.27
2023-04-16T18:55:32.497Z,3.00
2023-04-16T18:58:01.219Z,2.80
2023-04-16T19:00:29.893Z,3.30
2023-04-16T19:02:58.764Z,3.45
2023-04-16T19:05:27.510Z,4.60
2023-04-16T19:07:56.185Z,4.60
2023-04-16T19:10:26.333Z,4.30
2023-04-16T19:12:56.100Z,3.80
2023-04-16T19:15:25.033Z,2.95
2023-04-16T19:17:54.877Z,4.70
2023-04-16T19:22:52.365Z,3.10
2023-04-16T19:25:21.111Z,3.75
2023-04-16T19:27:51.532Z,3.90
2023-04-16T19:30:20.444Z,4.53
2023-04-16T19:32:49.359Z,5.03
2023-04-16T19:35:18.365Z,5.30
2023-04-16T19:37:47.354Z,4.10
2023-04-16T19:40:16.232Z,4.20
2023-04-16T19:42:45.512Z,4.25
2023-04-16T19:45:16.014Z,4.90
2023-04-16T19:47:44.871Z,4.82
2023-04-16T19:50:13.898Z,4.70
2023-04-16T19:52:43.041Z,6.00
2023-04-16T19:55:13.033Z,7.70
2023-04-16T19:57:41.853Z,5.95
2023-04-16T20:00:11.875Z,5.75
2023-04-16T20:02:42.135Z,5.13
2023-04-16T20:05:11.460Z,5.60
2023-04-16T20:07:40.196Z,6.22
2023-04-16T20:10:09.310Z,6.28
2023-04-16T20:12:38.236Z,6.00
2023-04-16T20:15:07.517Z,4.72
2023-04-16T20:17:36.260Z,5.25
2023-04-16T20:20:10.137Z,5.90
2023-04-16T20:22:39.200Z,4.90
2023-04-16T20:25:08.870Z,5.40
2023-04-16T20:27:37.955Z,6.22
2023-04-16T20:30:08.035Z,7.33
2023-04-16T20:32:36.837Z,7.07
2023-04-16T20:35:10.729Z,7.85
2023-04-16T20:37:42.043Z,7.05
2023-04-16T20:40:11.303Z,8.13
2023-04-16T20:42:41.129Z,7.68
2023-04-16T20:45:11.160Z,6.93
2023-04-16T20:47:40.132Z,6.75
2023-04-16T20:50:12.111Z,6.57
2023-04-16T20:52:42.291Z,5.82
2023-04-16T20:55:11.613Z,7.20
2023-04-16T20:57:40.756Z,6.40
2023-04-16T21:00:11.983Z,9.98
2023-04-16T21:02:40.977Z,7.00
2023-04-16T21:05:14.157Z,8.03
2023-04-16T21:07:43.229Z,8.15
2023-04-16T21:10:12.387Z,6.97
2023-04-16T21:12:41.566Z,7.45
2023-04-16T21:15:10.950Z,8.32
2023-04-16T21:17:39.975Z,7.35
2023-04-16T21:20:10.975Z,6.80
2023-04-16T21:22:41.548Z,6.53
2023-04-16T21:25:10.930Z,6.40
2023-04-16T21:27:39.603Z,6.65
2023-04-16T21:30:09.088Z,6.97
2023-04-16T21:32:37.951Z,6.68
2023-04-16T21:35:07.212Z,7.20
2023-04-16T21:37:35.948Z,6.22
2023-04-16T21:40:07.005Z,6.57
2023-04-16T21:42:38.174Z,6.25
2023-04-16T21:45:08.034Z,6.50
2023-04-16T21:50:05.723Z,6.97
2023-04-16T21:52:40.067Z,6.72
2023-04-16T21:55:11.384Z,6.78
2023-04-16T21:57:40.172Z,7.07
2023-04-16T22:00:13.733Z,7.20
2023-04-16T22:02:43.265Z,7.80
2023-04-16T22:05:12.788Z,6.97
2023-04-16T22:07:42.002Z,7.43
2023-04-16T22:10:14.903Z,7.20
2023-04-16T22:12:44.760Z,7.35
2023-04-16T22:15:14.332Z,8.25
2023-04-16T22:17:43.013Z,7.68
2023-04-16T22:20:12.959Z,8.32
2023-04-16T22:22:41.934Z,9.38
2023-04-16T22:25:12.530Z,8.63
2023-04-16T22:27:41.286Z,7.50
2023-04-16T22:30:10.845Z,7.03
2023-04-16T22:32:39.583Z,6.97
2023-04-16T22:35:08.814Z,6.68
2023-04-16T22:37:37.812Z,7.68
2023-04-16T22:40:08.901Z,7.70
2023-04-16T22:42:39.131Z,6.70
2023-04-16T22:45:08.352Z,7.30
2023-04-16T22:47:37.195Z,6.35
2023-04-16T22:50:06.444Z,8.15
2023-04-16T22:52:35.439Z,9.90
2023-04-16T22:55:04.258Z,7.73
2023-04-16T22:57:33.063Z,7.63
2023-04-16T23:00:05.476Z,7.15
2023-04-16T23:02:34.438Z,6.97
2023-04-16T23:05:03.644Z,6.93
2023-04-16T23:07:32.462Z,7.40
2023-04-16T23:10:01.529Z,7.97
2023-04-16T23:12:30.426Z,8.67
2023-04-16T23:15:00.482Z,7.93
2023-04-16T23:17:31.280Z,10.07
2023-04-16T23:20:00.537Z,9.50
2023-04-16T23:22:29.303Z,10.52
2023-04-16T23:24:58.087Z,10.27
2023-04-16T23:27:26.973Z,9.98
2023-04-16T23:29:55.777Z,11.85
2023-04-16T23:32:24.753Z,10.65
2023-04-16T23:34:55.167Z,9.43
2023-04-16T23:37:23.892Z,9.60
2023-04-16T23:39:52.734Z,9.90
2023-04-16T23:42:21.730Z,10.60
2023-04-16T23:44:50.582Z,11.00
2023-04-16T23:47:19.252Z,11.13
2023-04-16T23:49:48.155Z,10.65
2023-04-16T23:52:18.303Z,11.15
2023-04-16T23:54:46.920Z,10.10
2023-04-16T23:57:15.672Z,10.05
2023-04-16T23:59:44.523Z,10.27
